createdAt,value
2023-02-17T00:00:37.461Z,0.00
2023-02-17T00:01:37.391Z,0.00
2023-02-17T00:02:37.409Z,0.00
2023-02-17T00:03:37.437Z,0.00
2023-02-17T00:04:37.376Z,0.00
2023-02-17T00:05:37.371Z,0.00
2023-02-17T00:06:37.342Z,0.00
2023-02-17T00:07:37.341Z,0.00
2023-02-17T00:08:37.316Z,0.00
2023-02-17T00:09:37.319Z,0.00
2023-02-17T00:10:37.302Z,0.00
2023-02-17T00:11:37.305Z,0.00
2023-02-17T00:12:37.284Z,0.00
2023-02-17T00:13:37.263Z,0.00
2023-02-17T00:14:37.261Z,0.00
2023-02-17T00:15:37.275Z,0.00
2023-02-17T00:16:37.270Z,0.00
2023-02-17T00:17:37.231Z,0.00
2023-02-17T00:18:37.221Z,0.00
2023-02-17T00:19:37.202Z,0.00
2023-02-17T00:20:37.193Z,0.00
2023-02-17T00:21:37.193Z,0.00
2023-02-17T00:22:37.164Z,0.00
2023-02-17T00:23:37.162Z,0.00
2023-02-17T00:24:37.197Z,0.00
2023-02-17T00:25:37.131Z,0.00
2023-02-17T00:26:37.141Z,0.00
2023-02-17T00:27:37.133Z,0.00
2023-02-17T00:28:37.103Z,0.00
2023-02-17T00:29:37.092Z,0.00
2023-02-17T00:30:37.088Z,0.00
2023-02-17T00:31:37.150Z,0.00
2023-02-17T00:32:37.087Z,0.00
2023-02-17T00:33:37.078Z,0.00
2023-02-17T00:34:37.066Z,0.00
2023-02-17T00:35:37.043Z,0.00
2023-02-17T00:36:37.018Z,0.00
2023-02-17T00:37:37.021Z,0.00
2023-02-17T00:38:37.007Z,0.00
2023-02-17T00:39:36.997Z,0.00
2023-02-17T00:40:37.010Z,0.00
2023-02-17T00:41:36.967Z,0.00
2023-02-17T00:42:36.962Z,0.00
2023-02-17T00:43:36.965Z,0.00
2023-02-17T00:44:36.941Z,0.00
2023-02-17T00:45:36.967Z,0.00
2023-02-17T00:46:37.001Z,0.00
2023-02-17T00:47:36.924Z,0.00
2023-02-17T00:48:36.956Z,0.00
2023-02-17T00:49:36.899Z,0.00
2023-02-17T00:50:36.882Z,0.00
2023-02-17T00:51:36.872Z,0.00
2023-02-17T00:52:36.872Z,0.00
2023-02-17T00:53:36.843Z,0.00
2023-02-17T00:54:36.857Z,0.00
2023-02-17T00:55:36.827Z,0.00
2023-02-17T00:56:36.827Z,0.00
2023-02-17T00:57:36.798Z,0.00
2023-02-17T00:58:36.824Z,0.00
2023-02-17T00:59:36.790Z,0.00
2023-02-17T01:00:36.811Z,0.00
2023-02-17T01:01:36.808Z,0.00
2023-02-17T01:02:36.768Z,0.00
2023-02-17T01:03:36.749Z,0.00
2023-02-17T01:04:36.804Z,0.00
2023-02-17T01:05:36.741Z,0.00
2023-02-17T01:06:36.709Z,0.00
2023-02-17T01:07:36.692Z,0.00
2023-02-17T01:08:36.690Z,0.00
2023-02-17T01:09:36.678Z,0.00
2023-02-17T01:10:36.675Z,0.00
2023-02-17T01:11:36.684Z,0.00
2023-02-17T01:12:36.637Z,0.00
2023-02-17T01:13:36.638Z,0.00
2023-02-17T01:14:36.619Z,0.00
2023-02-17T01:15:36.657Z,0.00
2023-02-17T01:16:36.616Z,0.00
2023-02-17T01:17:36.587Z,0.00
2023-02-17T01:18:36.575Z,0.00
2023-02-17T01:19:36.564Z,0.00
2023-02-17T01:20:36.581Z,0.00
2023-02-17T01:21:36.564Z,0.00
2023-02-17T01:22:36.544Z,0.00
2023-02-17T01:23:36.523Z,0.00
2023-02-17T01:24:36.519Z,0.00
2023-02-17T01:25:36.504Z,0.00
2023-02-17T01:26:36.488Z,0.00
2023-02-17T01:27:36.497Z,0.00
2023-02-17T01:28:36.476Z,0.00
2023-02-17T01:29:36.469Z,0.00
2023-02-17T01:30:36.446Z,0.00
2023-02-17T01:31:36.574Z,0.00
2023-02-17T01:32:36.432Z,0.00
2023-02-17T01:33:36.416Z,0.00
2023-02-17T01:34:36.415Z,0.00
2023-02-17T01:35:36.404Z,0.00
2023-02-17T01:36:36.416Z,0.00
2023-02-17T01:37:36.393Z,0.00
2023-02-17T01:38:36.369Z,0.00
2023-02-17T01:39:36.370Z,0.00
2023-02-17T01:40:36.346Z,0.00
2023-02-17T01:41:36.346Z,0.00
2023-02-17T01:42:36.331Z,0.00
2023-02-17T01:43:36.318Z,0.00
2023-02-17T01:44:36.297Z,0.00
2023-02-17T01:45:36.292Z,0.00
2023-02-17T01:46:36.437Z,0.00
2023-02-17T01:47:36.271Z,0.00
2023-02-17T01:48:36.256Z,0.00
2023-02-17T01:49:36.256Z,0.00
2023-02-17T01:50:36.231Z,0.00
2023-02-17T01:51:36.219Z,0.00
2023-02-17T01:52:36.242Z,0.00
2023-02-17T01:53:36.200Z,0.00
2023-02-17T01:54:36.182Z,0.00
2023-02-17T01:55:36.186Z,0.00
2023-02-17T01:56:36.170Z,0.00
2023-02-17T01:57:36.163Z,0.00
2023-02-17T01:58:36.170Z,0.00
2023-02-17T01:59:36.127Z,0.00
2023-02-17T02:00:36.126Z,0.00
2023-02-17T02:01:36.141Z,0.00
2023-02-17T02:02:36.262Z,0.00
2023-02-17T02:03:36.095Z,0.00
2023-02-17T02:04:36.083Z,0.00
2023-02-17T02:05:37.632Z,0.00
2023-02-17T02:06:36.068Z,0.00
2023-02-17T02:07:36.043Z,0.00
2023-02-17T02:08:36.075Z,0.00
2023-02-17T02:09:36.048Z,0.00
2023-02-17T02:10:36.011Z,0.00
2023-02-17T02:11:36.002Z,0.00
2023-02-17T02:12:35.996Z,0.00
2023-02-17T02:13:35.984Z,0.00
2023-02-17T02:14:35.990Z,0.00
2023-02-17T02:15:35.983Z,0.00
2023-02-17T02:16:36.008Z,0.00
2023-02-17T02:17:35.956Z,0.00
2023-02-17T02:18:35.939Z,0.00
2023-02-17T02:19:35.926Z,0.00
2023-02-17T02:20:35.917Z,0.00
2023-02-17T02:21:35.918Z,0.00
2023-02-17T02:22:35.895Z,0.00
2023-02-17T02:23:35.884Z,0.00
2023-02-17T02:24:35.888Z,0.00
2023-02-17T02:25:35.872Z,0.00
2023-02-17T02:26:35.878Z,0.00
2023-02-17T02:27:35.836Z,0.00
2023-02-17T02:28:35.833Z,0.00
2023-02-17T02:29:35.838Z,0.00
2023-02-17T02:30:35.818Z,0.00
2023-02-17T02:31:35.813Z,0.00
2023-02-17T02:32:35.801Z,0.00
2023-02-17T02:33:35.781Z,0.00
2023-02-17T02:34:35.776Z,0.00
2023-02-17T02:35:35.756Z,0.00
2023-02-17T02:36:35.746Z,0.00
2023-02-17T02:37:35.742Z,0.00
2023-02-17T02:38:35.732Z,0.00
2023-02-17T02:39:35.707Z,0.00
2023-02-17T02:40:35.726Z,0.00
2023-02-17T02:41:35.696Z,0.00
2023-02-17T02:42:35.701Z,0.00
2023-02-17T02:43:35.673Z,0.00
2023-02-17T02:44:43.185Z,0.00
2023-02-17T02:45:43.215Z,0.00
2023-02-17T02:46:43.174Z,0.00
2023-02-17T02:47:44.634Z,0.00
2023-02-17T02:48:35.620Z,0.00
2023-02-17T02:49:35.613Z,0.00
2023-02-17T02:50:35.602Z,0.00
2023-02-17T02:51:35.590Z,0.00
2023-02-17T02:52:35.576Z,0.00
2023-02-17T02:53:35.579Z,0.00
2023-02-17T02:54:35.558Z,0.00
2023-02-17T02:55:35.561Z,0.00
2023-02-17T02:56:35.565Z,0.00
2023-02-17T02:57:35.530Z,0.00
2023-02-17T02:58:35.529Z,0.00
2023-02-17T02:59:35.497Z,0.00
2023-02-17T03:00:35.489Z,0.00
2023-02-17T03:01:35.474Z,0.00
2023-02-17T03:02:35.469Z,0.00
2023-02-17T03:03:35.495Z,0.00
2023-02-17T03:04:35.473Z,0.00
2023-02-17T03:05:35.445Z,0.00
2023-02-17T03:06:35.437Z,0.00
2023-02-17T03:07:35.406Z,0.00
2023-02-17T03:08:35.402Z,0.00
2023-02-17T03:09:35.394Z,0.00
2023-02-17T03:10:35.385Z,0.00
2023-02-17T03:11:35.375Z,0.00
2023-02-17T03:12:35.375Z,0.00
2023-02-17T03:13:35.348Z,0.00
2023-02-17T03:14:35.332Z,0.00
2023-02-17T03:15:35.346Z,0.00
2023-02-17T03:16:35.341Z,0.00
2023-02-17T03:17:35.303Z,0.00
2023-02-17T03:18:35.304Z,0.00
2023-02-17T03:19:35.290Z,0.00
2023-02-17T03:20:35.299Z,0.00
2023-02-17T03:21:35.270Z,0.00
2023-02-17T03:22:35.246Z,0.00
2023-02-17T03:23:35.252Z,0.00
2023-02-17T03:24:35.229Z,0.00
2023-02-17T03:25:35.238Z,0.00
2023-02-17T03:26:35.220Z,0.00
2023-02-17T03:27:35.195Z,0.00
2023-02-17T03:28:35.211Z,0.00
2023-02-17T03:29:35.178Z,0.00
2023-02-17T03:30:35.177Z,0.00
2023-02-17T03:31:35.317Z,0.00
2023-02-17T03:32:35.158Z,0.00
2023-02-17T03:33:35.136Z,0.00
2023-02-17T03:34:35.125Z,0.00
2023-02-17T03:35:35.108Z,0.00
2023-02-17T03:36:35.111Z,0.00
2023-02-17T03:37:35.090Z,0.00
2023-02-17T03:38:35.102Z,0.00
2023-02-17T03:39:35.076Z,0.00
2023-02-17T03:40:35.061Z,0.00
2023-02-17T03:41:35.051Z,0.00
2023-02-17T03:42:35.041Z,0.00
2023-02-17T03:43:35.043Z,0.00
2023-02-17T03:44:35.035Z,0.00
2023-02-17T03:45:35.045Z,0.00
2023-02-17T03:46:35.006Z,0.00
2023-02-17T03:47:34.984Z,0.00
2023-02-17T03:48:34.976Z,0.00
2023-02-17T03:49:34.972Z,0.00
2023-02-17T03:50:34.956Z,0.00
2023-02-17T03:51:34.958Z,0.00
2023-02-17T03:52:34.942Z,0.00
2023-02-17T03:53:36.581Z,0.00
2023-02-17T03:54:34.904Z,0.00
2023-02-17T03:55:34.895Z,0.00
2023-02-17T03:56:34.900Z,0.00
2023-02-17T03:57:34.871Z,0.00
2023-02-17T03:58:34.887Z,0.00
2023-02-17T03:59:34.862Z,0.00
2023-02-17T04:00:34.868Z,0.00
2023-02-17T04:01:34.906Z,0.00
2023-02-17T04:02:34.815Z,0.00
2023-02-17T04:03:34.810Z,0.00
2023-02-17T04:04:34.821Z,0.00
2023-02-17T04:05:34.797Z,0.00
2023-02-17T04:06:34.788Z,0.00
2023-02-17T04:07:34.774Z,0.00
2023-02-17T04:08:34.764Z,0.00
2023-02-17T04:09:34.752Z,0.00
2023-02-17T04:10:34.745Z,0.00
2023-02-17T04:11:34.736Z,0.00
2023-02-17T04:12:34.716Z,0.00
2023-02-17T04:13:34.703Z,0.00
2023-02-17T04:14:34.705Z,0.00
2023-02-17T04:15:34.745Z,0.00
2023-02-17T04:16:34.712Z,0.00
2023-02-17T04:17:34.673Z,0.00
2023-02-17T04:18:34.666Z,0.00
2023-02-17T04:19:34.649Z,0.00
2023-02-17T04:20:34.641Z,0.00
2023-02-17T04:21:34.634Z,0.00
2023-02-17T04:22:34.606Z,0.00
2023-02-17T04:23:34.596Z,0.00
2023-02-17T04:24:34.587Z,0.00
2023-02-17T04:25:34.581Z,0.00
2023-02-17T04:26:34.579Z,0.00
2023-02-17T04:27:34.562Z,0.00
2023-02-17T04:28:34.551Z,0.00
2023-02-17T04:29:34.534Z,0.00
2023-02-17T04:30:34.642Z,0.00
2023-02-17T04:31:34.666Z,0.00
2023-02-17T04:32:34.516Z,0.00
2023-02-17T04:33:34.497Z,0.00
2023-02-17T04:34:34.478Z,0.00
2023-02-17T04:35:34.471Z,0.00
2023-02-17T04:36:34.455Z,0.00
2023-02-17T04:37:34.458Z,0.00
2023-02-17T04:38:34.433Z,0.00
2023-02-17T04:39:34.431Z,0.00
2023-02-17T04:40:34.428Z,0.00
2023-02-17T04:41:34.426Z,0.00
2023-02-17T04:42:34.413Z,0.00
2023-02-17T04:43:34.382Z,0.00
2023-02-17T04:44:34.378Z,0.00
2023-02-17T04:45:34.364Z,0.00
2023-02-17T04:46:34.343Z,0.00
2023-02-17T04:47:34.333Z,0.00
2023-02-17T04:48:34.353Z,0.00
2023-02-17T04:49:34.323Z,0.00
2023-02-17T04:50:34.312Z,0.00
2023-02-17T04:51:34.304Z,0.00
2023-02-17T04:52:34.285Z,0.00
2023-02-17T04:53:34.286Z,0.00
2023-02-17T04:54:34.266Z,0.00
2023-02-17T04:55:34.263Z,0.00
2023-02-17T04:56:34.233Z,0.00
2023-02-17T04:57:34.235Z,0.00
2023-02-17T04:58:34.245Z,0.00
2023-02-17T04:59:34.206Z,0.00
2023-02-17T05:00:34.196Z,0.00
2023-02-17T05:01:34.273Z,0.00
2023-02-17T05:02:34.196Z,0.00
2023-02-17T05:03:34.166Z,0.00
2023-02-17T05:04:34.226Z,0.00
2023-02-17T05:05:34.143Z,0.00
2023-02-17T05:06:34.136Z,0.00
2023-02-17T05:07:34.136Z,0.00
2023-02-17T05:08:34.116Z,0.00
2023-02-17T05:09:34.123Z,0.00
2023-02-17T05:10:34.092Z,0.00
2023-02-17T05:11:34.083Z,0.00
2023-02-17T05:12:34.073Z,0.00
2023-02-17T05:13:34.077Z,0.00
2023-02-17T05:14:34.068Z,0.00
2023-02-17T05:15:35.070Z,0.00
2023-02-17T05:16:34.030Z,0.00
2023-02-17T05:17:34.022Z,0.00
2023-02-17T05:18:34.002Z,0.00
2023-02-17T05:19:33.988Z,0.00
2023-02-17T05:20:34.023Z,0.00
2023-02-17T05:21:33.975Z,0.00
2023-02-17T05:22:33.955Z,0.00
2023-02-17T05:23:33.943Z,0.00
2023-02-17T05:24:33.945Z,0.00
2023-02-17T05:25:33.942Z,0.00
2023-02-17T05:26:33.928Z,0.00
2023-02-17T05:27:33.934Z,0.00
2023-02-17T05:28:33.893Z,0.00
2023-02-17T05:29:33.879Z,0.00
2023-02-17T05:30:33.893Z,0.00
2023-02-17T05:31:34.086Z,0.00
2023-02-17T05:32:33.855Z,0.00
2023-02-17T05:33:33.847Z,0.00
2023-02-17T05:34:33.865Z,0.00
2023-02-17T05:35:35.069Z,0.00
2023-02-17T05:36:33.833Z,0.00
2023-02-17T05:37:33.810Z,0.00
2023-02-17T05:38:33.788Z,0.00
2023-02-17T05:39:33.793Z,0.00
2023-02-17T05:40:33.783Z,0.00
2023-02-17T05:41:33.776Z,0.00
2023-02-17T05:42:33.750Z,0.00
2023-02-17T05:43:33.752Z,0.00
2023-02-17T05:44:33.735Z,0.00
2023-02-17T05:45:33.720Z,0.00
2023-02-17T05:46:33.769Z,0.00
2023-02-17T05:47:33.722Z,0.00
2023-02-17T05:48:33.694Z,0.00
2023-02-17T05:49:33.675Z,0.00
2023-02-17T05:50:33.668Z,0.00
2023-02-17T05:51:33.644Z,0.00
2023-02-17T05:52:33.663Z,0.00
2023-02-17T05:53:33.705Z,0.00
2023-02-17T05:54:33.625Z,0.00
2023-02-17T05:55:33.622Z,0.00
2023-02-17T05:56:33.611Z,0.00
2023-02-17T05:57:33.587Z,0.00
2023-02-17T05:58:33.585Z,4.00
2023-02-17T05:59:33.583Z,4.00
2023-02-17T06:00:33.550Z,0.00
2023-02-17T06:01:33.542Z,4.00
2023-02-17T06:02:33.536Z,4.00
2023-02-17T06:03:33.533Z,4.00
2023-02-17T06:04:33.559Z,8.00
2023-02-17T06:05:33.506Z,4.00
2023-02-17T06:06:33.504Z,8.00
2023-02-17T06:07:33.490Z,8.00
2023-02-17T06:08:33.502Z,8.00
2023-02-17T06:09:33.493Z,8.00
2023-02-17T06:10:33.453Z,12.00
2023-02-17T06:11:33.438Z,16.00
2023-02-17T06:12:33.439Z,20.00
2023-02-17T06:13:33.422Z,24.00
2023-02-17T06:14:33.412Z,28.00
2023-02-17T06:15:33.409Z,28.00
2023-02-17T06:16:33.478Z,32.00
2023-02-17T06:17:33.377Z,36.00
2023-02-17T06:18:33.363Z,44.00
2023-02-17T06:19:33.364Z,48.00
2023-02-17T06:20:33.369Z,52.00
2023-02-17T06:21:33.335Z,56.00
2023-02-17T06:22:33.319Z,64.00
2023-02-17T06:23:33.318Z,64.00
2023-02-17T06:24:33.343Z,64.00
2023-02-17T06:25:33.302Z,68.00
2023-02-17T06:26:33.279Z,68.00
2023-02-17T06:27:33.265Z,80.00
2023-02-17T06:28:35.068Z,96.00
2023-02-17T06:29:33.244Z,108.00
2023-02-17T06:30:33.338Z,112.00
2023-02-17T06:31:33.357Z,112.00
2023-02-17T06:32:33.226Z,124.00
2023-02-17T06:33:33.211Z,152.00
2023-02-17T06:34:33.187Z,200.00
2023-02-17T06:35:33.209Z,236.00
2023-02-17T06:36:33.162Z,292.00
2023-02-17T06:37:33.173Z,304.00
2023-02-17T06:38:33.150Z,312.00
2023-02-17T06:39:33.145Z,360.00
2023-02-17T06:40:33.142Z,376.00
2023-02-17T06:41:33.134Z,412.00
2023-02-17T06:42:33.107Z,440.00
2023-02-17T06:43:33.088Z,504.00
2023-02-17T06:44:33.093Z,624.00
2023-02-17T06:45:33.106Z,644.00
2023-02-17T06:46:33.074Z,700.00
2023-02-17T06:47:33.065Z,820.00
2023-02-17T06:48:33.046Z,904.00
2023-02-17T06:49:33.029Z,936.00
2023-02-17T06:50:33.020Z,916.00
2023-02-17T06:51:33.008Z,900.00
2023-02-17T06:52:33.004Z,880.00
2023-02-17T06:53:32.998Z,856.00
2023-02-17T06:54:32.970Z,768.00
2023-02-17T06:55:32.964Z,756.00
2023-02-17T06:56:32.970Z,832.00
2023-02-17T06:57:32.938Z,880.00
2023-02-17T06:58:32.946Z,892.00
2023-02-17T06:59:32.938Z,844.00
2023-02-17T07:00:32.912Z,876.00
2023-02-17T07:01:32.899Z,884.00
2023-02-17T07:02:33.043Z,840.00
2023-02-17T07:03:32.873Z,840.00
2023-02-17T07:04:32.887Z,900.00
2023-02-17T07:05:32.868Z,1000.00
2023-02-17T07:06:32.863Z,1128.00
2023-02-17T07:07:32.843Z,1224.00
2023-02-17T07:08:34.112Z,1296.00
2023-02-17T07:09:32.834Z,1352.00
2023-02-17T07:10:32.819Z,1340.00
2023-02-17T07:11:32.880Z,1368.00
2023-02-17T07:12:32.836Z,1372.00
2023-02-17T07:13:32.781Z,1288.00
2023-02-17T07:14:32.773Z,1212.00
2023-02-17T07:15:32.751Z,1180.00
2023-02-17T07:16:32.764Z,1068.00
2023-02-17T07:17:32.739Z,1012.00
2023-02-17T07:18:32.738Z,1048.00
2023-02-17T07:19:32.737Z,1204.00
2023-02-17T07:20:32.729Z,1408.00
2023-02-17T07:21:32.700Z,1376.00
2023-02-17T07:22:32.698Z,1228.00
2023-02-17T07:23:32.690Z,1240.00
2023-02-17T07:24:32.688Z,1232.00
2023-02-17T07:25:32.681Z,1292.00
2023-02-17T07:26:32.649Z,1580.00
2023-02-17T07:27:32.638Z,1816.00
2023-02-17T07:28:32.646Z,1936.00
2023-02-17T07:29:32.609Z,1916.00
2023-02-17T07:30:32.673Z,1884.00
2023-02-17T07:31:32.662Z,1784.00
2023-02-17T07:32:32.606Z,1968.00
2023-02-17T07:33:32.567Z,2004.00
2023-02-17T07:34:32.577Z,1864.00
2023-02-17T07:35:32.554Z,1776.00
2023-02-17T07:36:32.555Z,1836.00
2023-02-17T07:37:32.532Z,1904.00
2023-02-17T07:38:33.484Z,1876.00
2023-02-17T07:39:32.520Z,1736.00
2023-02-17T07:40:32.499Z,1676.00
2023-02-17T07:41:32.494Z,1520.00
2023-02-17T07:42:32.471Z,1436.00
2023-02-17T07:43:32.488Z,1444.00
2023-02-17T07:44:32.463Z,1568.00
2023-02-17T07:45:32.466Z,1440.00
2023-02-17T07:46:32.457Z,1272.00
2023-02-17T07:47:32.424Z,1172.00
2023-02-17T07:48:32.413Z,1136.00
2023-02-17T07:49:32.397Z,1136.00
2023-02-17T07:50:32.388Z,1376.00
2023-02-17T07:51:32.371Z,1624.00
2023-02-17T07:52:32.378Z,1736.00
2023-02-17T07:53:32.379Z,1880.00
2023-02-17T07:54:32.351Z,1984.00
2023-02-17T07:55:32.335Z,1760.00
2023-02-17T07:56:32.320Z,1540.00
2023-02-17T07:57:32.310Z,1328.00
2023-02-17T07:58:32.305Z,1376.00
2023-02-17T07:59:32.290Z,1432.00
2023-02-17T08:00:32.290Z,1288.00
2023-02-17T08:01:32.254Z,1252.00
2023-02-17T08:02:32.269Z,1236.00
2023-02-17T08:03:32.239Z,1244.00
2023-02-17T08:04:32.307Z,1188.00
2023-02-17T08:05:32.238Z,1152.00
2023-02-17T08:06:32.211Z,1204.00
2023-02-17T08:07:32.200Z,1312.00
2023-02-17T08:08:32.182Z,1472.00
2023-02-17T08:09:32.190Z,1668.00
2023-02-17T08:10:32.171Z,1740.00
2023-02-17T08:11:32.151Z,1656.00
2023-02-17T08:12:32.147Z,1620.00
2023-02-17T08:13:32.137Z,1668.00
2023-02-17T08:14:32.124Z,1788.00
2023-02-17T08:15:32.146Z,1792.00
2023-02-17T08:16:32.149Z,1712.00
2023-02-17T08:17:32.126Z,1776.00
2023-02-17T08:18:36.237Z,1752.00
2023-02-17T08:19:46.999Z,1664.00
2023-02-17T08:20:34.977Z,1740.00
2023-02-17T08:21:32.048Z,1732.00
2023-02-17T08:22:32.049Z,1672.00
2023-02-17T08:23:32.039Z,1668.00
2023-02-17T08:24:32.022Z,1760.00
2023-02-17T08:25:32.023Z,1564.00
2023-02-17T08:26:32.014Z,1676.00
2023-02-17T08:27:31.986Z,1852.00
2023-02-17T08:28:31.995Z,2136.00
2023-02-17T08:29:32.016Z,2392.00
2023-02-17T08:30:32.128Z,2524.00
2023-02-17T08:31:32.132Z,2524.00
2023-02-17T08:32:31.964Z,2576.00
2023-02-17T08:33:31.931Z,2548.00
2023-02-17T08:34:31.908Z,2380.00
2023-02-17T08:35:31.911Z,2008.00
2023-02-17T08:36:31.921Z,2000.00
2023-02-17T08:37:31.918Z,1932.00
2023-02-17T08:38:31.882Z,1976.00
2023-02-17T08:39:31.863Z,1968.00
2023-02-17T08:40:31.868Z,1624.00
2023-02-17T08:41:31.856Z,1676.00
2023-02-17T08:42:31.842Z,1756.00
2023-02-17T08:43:31.823Z,1892.00
2023-02-17T08:44:31.812Z,1760.00
2023-02-17T08:45:31.828Z,1688.00
2023-02-17T08:46:31.804Z,1768.00
2023-02-17T08:47:31.796Z,2216.00
2023-02-17T08:48:31.792Z,2424.00
2023-02-17T08:49:31.804Z,2044.00
2023-02-17T08:50:31.796Z,2064.00
2023-02-17T08:51:31.738Z,2092.00
2023-02-17T08:52:31.775Z,2328.00
2023-02-17T08:53:31.748Z,2404.00
2023-02-17T08:54:31.719Z,2420.00
2023-02-17T08:55:43.956Z,2428.00
2023-02-17T08:56:32.712Z,2712.00
2023-02-17T08:57:31.669Z,2804.00
2023-02-17T08:58:31.714Z,2692.00
2023-02-17T08:59:31.648Z,2732.00
2023-02-17T09:00:31.651Z,2948.00
2023-02-17T09:01:31.644Z,3020.00
2023-02-17T09:02:31.617Z,2880.00
2023-02-17T09:03:31.665Z,2700.00
2023-02-17T09:04:31.654Z,2808.00
2023-02-17T09:05:31.592Z,2800.00
2023-02-17T09:06:31.566Z,2716.00
2023-02-17T09:07:31.559Z,2804.00
2023-02-17T09:08:31.553Z,2904.00
2023-02-17T09:09:31.671Z,2864.00
2023-02-17T09:10:31.539Z,2988.00
2023-02-17T09:11:31.520Z,3296.00
2023-02-17T09:12:31.510Z,3484.00
2023-02-17T09:13:31.494Z,3428.00
2023-02-17T09:14:31.495Z,3208.00
2023-02-17T09:15:31.559Z,2904.00
2023-02-17T09:16:31.472Z,3092.00
2023-02-17T09:17:31.521Z,3152.00
2023-02-17T09:18:31.486Z,3200.00
2023-02-17T09:19:31.427Z,3240.00
2023-02-17T09:20:31.476Z,3216.00
2023-02-17T09:21:31.424Z,3084.00
2023-02-17T09:22:32.559Z,3112.00
2023-02-17T09:23:31.404Z,3052.00
2023-02-17T09:24:31.412Z,3424.00
2023-02-17T09:25:31.382Z,3632.00
2023-02-17T09:26:31.460Z,3720.00
2023-02-17T09:27:31.388Z,4028.00
2023-02-17T09:28:31.330Z,3920.00
2023-02-17T09:29:31.329Z,3404.00
2023-02-17T09:30:31.374Z,3148.00
2023-02-17T09:31:31.433Z,3140.00
2023-02-17T09:32:31.344Z,3468.00
2023-02-17T09:33:31.336Z,3540.00
2023-02-17T09:34:31.290Z,3824.00
2023-02-17T09:35:31.292Z,3780.00
2023-02-17T09:36:31.310Z,4172.00
2023-02-17T09:37:31.243Z,4344.00
2023-02-17T09:38:31.238Z,4360.00
2023-02-17T09:39:31.266Z,4328.00
2023-02-17T09:40:31.205Z,4280.00
2023-02-17T09:41:31.213Z,4596.00
2023-02-17T09:42:31.240Z,4764.00
2023-02-17T09:43:31.191Z,4696.00
2023-02-17T09:44:31.261Z,4940.00
2023-02-17T09:45:31.169Z,5432.00
2023-02-17T09:46:31.183Z,5016.00
2023-02-17T09:47:31.171Z,4292.00
2023-02-17T09:48:31.207Z,4020.00
2023-02-17T09:49:31.125Z,4004.00
2023-02-17T09:50:31.106Z,4024.00
2023-02-17T09:51:31.124Z,4328.00
2023-02-17T09:52:31.124Z,4364.00
2023-02-17T09:53:31.078Z,4600.00
2023-02-17T09:54:31.098Z,5116.00
2023-02-17T09:55:31.089Z,5784.00
2023-02-17T09:56:32.648Z,6188.00
2023-02-17T09:57:31.023Z,6052.00
2023-02-17T09:58:31.021Z,5432.00
2023-02-17T09:59:30.996Z,5356.00
2023-02-17T10:00:31.005Z,5108.00
2023-02-17T10:01:31.057Z,4892.00
2023-02-17T10:02:31.026Z,4824.00
2023-02-17T10:03:31.282Z,4448.00
2023-02-17T10:04:31.085Z,4400.00
2023-02-17T10:05:30.927Z,4524.00
2023-02-17T10:06:30.956Z,4692.00
2023-02-17T10:07:30.980Z,4788.00
2023-02-17T10:08:30.942Z,4984.00
2023-02-17T10:09:30.905Z,5352.00
2023-02-17T10:10:30.889Z,5492.00
2023-02-17T10:11:30.919Z,5480.00
2023-02-17T10:12:30.924Z,5456.00
2023-02-17T10:13:30.878Z,5548.00
2023-02-17T10:14:30.921Z,5608.00
2023-02-17T10:15:30.839Z,5364.00
2023-02-17T10:16:30.868Z,5272.00
2023-02-17T10:17:30.804Z,5668.00
2023-02-17T10:18:30.849Z,5900.00
2023-02-17T10:19:30.791Z,6140.00
2023-02-17T10:20:30.769Z,6096.00
2023-02-17T10:21:30.804Z,5796.00
2023-02-17T10:22:30.813Z,6020.00
2023-02-17T10:23:30.824Z,5916.00
2023-02-17T10:24:30.822Z,5888.00
2023-02-17T10:25:30.794Z,5812.00
2023-02-17T10:26:30.745Z,5516.00
2023-02-17T10:27:30.731Z,5196.00
2023-02-17T10:28:30.679Z,4948.00
2023-02-17T10:29:30.717Z,5072.00
2023-02-17T10:30:30.800Z,5056.00
2023-02-17T10:31:30.725Z,5208.00
2023-02-17T10:32:30.830Z,5136.00
2023-02-17T10:33:30.636Z,4936.00
2023-02-17T10:34:30.624Z,4872.00
2023-02-17T10:35:30.635Z,4868.00
2023-02-17T10:36:30.596Z,4944.00
2023-02-17T10:37:30.596Z,5096.00
2023-02-17T10:38:30.584Z,5336.00
2023-02-17T10:39:30.576Z,5500.00
2023-02-17T10:40:30.595Z,5944.00
2023-02-17T10:41:30.550Z,6676.00
2023-02-17T10:42:30.536Z,7168.00
2023-02-17T10:43:30.523Z,7400.00
2023-02-17T10:44:30.534Z,7080.00
2023-02-17T10:45:30.525Z,6776.00
2023-02-17T10:46:30.607Z,6356.00
2023-02-17T10:47:30.501Z,6360.00
2023-02-17T10:48:30.492Z,5868.00
2023-02-17T10:49:30.454Z,5484.00
2023-02-17T10:50:30.451Z,5460.00
2023-02-17T10:51:30.471Z,5276.00
2023-02-17T10:52:30.425Z,5072.00
2023-02-17T10:53:30.418Z,5148.00
2023-02-17T10:54:30.399Z,5388.00
2023-02-17T10:55:30.397Z,5412.00
2023-02-17T10:56:30.405Z,5400.00
2023-02-17T10:57:30.374Z,5576.00
2023-02-17T10:58:30.367Z,5784.00
2023-02-17T10:59:30.364Z,6104.00
2023-02-17T11:00:30.391Z,6484.00
2023-02-17T11:01:30.369Z,6872.00
2023-02-17T11:02:30.344Z,6664.00
2023-02-17T11:03:30.336Z,6820.00
2023-02-17T11:04:30.305Z,6744.00
2023-02-17T11:05:30.299Z,5908.00
2023-02-17T11:06:30.276Z,5704.00
2023-02-17T11:07:30.272Z,5324.00
2023-02-17T11:08:30.274Z,5432.00
2023-02-17T11:09:30.251Z,5588.00
2023-02-17T11:10:30.248Z,5200.00
2023-02-17T11:11:30.230Z,5344.00
2023-02-17T11:12:30.274Z,5408.00
2023-02-17T11:13:30.233Z,5068.00
2023-02-17T11:14:30.259Z,4888.00
2023-02-17T11:15:30.189Z,4888.00
2023-02-17T11:16:30.208Z,4940.00
2023-02-17T11:17:30.200Z,5060.00
2023-02-17T11:18:30.148Z,4892.00
2023-02-17T11:19:30.154Z,4696.00
2023-02-17T11:20:30.146Z,4336.00
2023-02-17T11:21:30.133Z,4348.00
2023-02-17T11:22:30.109Z,4432.00
2023-02-17T11:23:30.118Z,4408.00
2023-02-17T11:24:30.085Z,4820.00
2023-02-17T11:25:30.089Z,4540.00
2023-02-17T11:26:30.089Z,4400.00
2023-02-17T11:27:30.058Z,4440.00
2023-02-17T11:28:30.084Z,4088.00
2023-02-17T11:29:30.051Z,3972.00
2023-02-17T11:30:30.075Z,3820.00
2023-02-17T11:31:30.170Z,3788.00
2023-02-17T11:32:30.016Z,3840.00
2023-02-17T11:33:30.018Z,4116.00
2023-02-17T11:34:30.006Z,4420.00
2023-02-17T11:35:29.983Z,4652.00
2023-02-17T11:36:29.968Z,4528.00
2023-02-17T11:37:29.978Z,4732.00
2023-02-17T11:38:29.949Z,4392.00
2023-02-17T11:39:29.939Z,4104.00
2023-02-17T11:40:29.939Z,3792.00
2023-02-17T11:41:29.927Z,3608.00
2023-02-17T11:42:29.915Z,3696.00
2023-02-17T11:43:29.902Z,3868.00
2023-02-17T11:44:29.900Z,3668.00
2023-02-17T11:45:29.923Z,3388.00
2023-02-17T11:46:29.884Z,3172.00
2023-02-17T11:47:29.853Z,3264.00
2023-02-17T11:48:29.848Z,3328.00
2023-02-17T11:49:29.843Z,3112.00
2023-02-17T11:50:40.968Z,2920.00
2023-02-17T11:51:30.827Z,2824.00
2023-02-17T11:52:29.798Z,3244.00
2023-02-17T11:53:29.800Z,3468.00
2023-02-17T11:54:29.793Z,3552.00
2023-02-17T11:55:29.779Z,3520.00
2023-02-17T11:56:29.777Z,3540.00
2023-02-17T11:57:29.758Z,3720.00
2023-02-17T11:58:29.744Z,3620.00
2023-02-17T11:59:29.724Z,3676.00
2023-02-17T12:00:29.745Z,3796.00
2023-02-17T12:01:29.711Z,3880.00
2023-02-17T12:02:29.719Z,3732.00
2023-02-17T12:03:29.757Z,3832.00
2023-02-17T12:04:29.668Z,3988.00
2023-02-17T12:05:29.657Z,3896.00
2023-02-17T12:06:29.665Z,3608.00
2023-02-17T12:07:29.664Z,3444.00
2023-02-17T12:08:29.642Z,3652.00
2023-02-17T12:09:29.626Z,3752.00
2023-02-17T12:10:29.607Z,3740.00
2023-02-17T12:11:29.623Z,4064.00
2023-02-17T12:12:29.579Z,4172.00
2023-02-17T12:13:29.587Z,4720.00
2023-02-17T12:14:31.305Z,5116.00
2023-02-17T12:15:29.561Z,5176.00
2023-02-17T12:16:29.556Z,5488.00
2023-02-17T12:17:29.533Z,5784.00
2023-02-17T12:18:29.513Z,5780.00
2023-02-17T12:19:29.527Z,6488.00
2023-02-17T12:20:29.501Z,7308.00
2023-02-17T12:21:29.608Z,6544.00
2023-02-17T12:22:29.486Z,6564.00
2023-02-17T12:23:29.475Z,5932.00
2023-02-17T12:24:29.454Z,5408.00
2023-02-17T12:25:29.438Z,5312.00
2023-02-17T12:26:29.426Z,5120.00
2023-02-17T12:27:29.416Z,6180.00
2023-02-17T12:28:29.436Z,6144.00
2023-02-17T12:29:29.400Z,5380.00
2023-02-17T12:30:29.490Z,4428.00
2023-02-17T12:31:29.541Z,4464.00
2023-02-17T12:32:29.384Z,4684.00
2023-02-17T12:33:29.347Z,5260.00
2023-02-17T12:34:29.358Z,5592.00
2023-02-17T12:35:29.326Z,6008.00
2023-02-17T12:36:29.316Z,6020.00
2023-02-17T12:37:29.313Z,6928.00
2023-02-17T12:38:29.295Z,6552.00
2023-02-17T12:39:29.299Z,7048.00
2023-02-17T12:40:29.296Z,6420.00
2023-02-17T12:41:29.278Z,7352.00